Time;durP1;ratioP1;P1;durP2;ratioP2;P2;SDS_P1;SDS_P2;PMS_P1;PMS_P2;Temp;Humidity;BMP_temperature;BMP_pressure;BME280_temperature;BME280_humidity;BME280_pressure;Samples;Min_cycle;Max_cycle;Signal;HPM_P1;HPM_P2
2023/09/17 00:01:00;;;;;;;22.50;17.00;;;19.70;93.90;;;;;;5057837;28;20274;-92
2023/09/17 00:03:26;;;;;;;27.20;18.60;;;19.80;99.70;;;;;;5057439;28;20271;-91
2023/09/17 00:05:52;;;;;;;22.67;17.13;;;19.60;99.90;;;;;;5066725;28;20184;-92
2023/09/17 00:08:20;;;;;;;21.37;18.03;;;19.40;99.90;;;;;;5065274;28;20180;-90
2023/09/17 00:10:45;;;;;;;25.30;18.33;;;19.20;99.90;;;;;;5058971;28;20602;-91
2023/09/17 00:13:12;;;;;;;26.60;18.57;;;19.20;99.90;;;;;;5058737;28;20195;-91
2023/09/17 00:15:38;;;;;;;26.83;19.67;;;19.20;99.90;;;;;;5058591;28;20204;-92
2023/09/17 00:18:04;;;;;;;24.97;19.23;;;19.00;99.90;;;;;;5079326;22;20258;-49
2023/09/17 00:20:30;;;;;;;28.53;20.50;;;19.10;99.90;;;;;;5072237;28;20319;-48
2023/09/17 00:22:56;;;;;;;25.73;20.27;;;19.00;99.90;;;;;;5073686;28;20710;-49
2023/09/17 00:27:58;;;;;;;28.03;19.13;;;19.00;99.90;;;;;;4005132;22;20581;-48
2023/09/17 00:30:24;;;;;;;28.30;20.53;;;19.00;99.90;;;;;;5073363;28;20701;-48
2023/09/17 00:32:50;;;;;;;29.57;21.37;;;19.00;99.90;;;;;;5073502;28;20180;-48
2023/09/17 00:35:16;;;;;;;28.40;19.43;;;18.90;99.90;;;;;;5073652;28;20219;-48
2023/09/17 00:37:43;;;;;;;27.47;19.67;;;19.00;99.90;;;;;;5072086;28;20186;-50
2023/09/17 00:40:12;;;;;;;24.17;18.83;;;18.90;99.90;;;;;;5073603;28;20286;-48
2023/09/17 00:42:40;;;;;;;22.00;18.67;;;18.90;99.90;;;;;;5072220;28;20184;-48
2023/09/17 00:45:06;;;;;;;23.00;17.47;;;19.00;99.90;;;;;;5072112;28;20187;-48
2023/09/17 00:47:32;;;;;;;23.47;16.97;;;19.00;99.90;;;;;;5073617;28;20235;-47
2023/09/17 00:50:00;;;;;;;21.70;17.20;;;19.00;99.90;;;;;;5072255;28;20556;-49
2023/09/17 00:52:26;;;;;;;22.23;17.00;;;19.00;99.90;;;;;;5073217;28;20647;-49
2023/09/17 00:54:53;;;;;;;23.13;17.00;;;19.00;99.90;;;;;;5072021;28;20654;-49
2023/09/17 00:57:21;;;;;;;19.10;15.27;;;19.10;99.90;;;;;;5074175;28;20286;-48
2023/09/17 00:59:48;;;;;;;22.83;16.93;;;19.10;99.90;;;;;;5072231;28;20241;-48
2023/09/17 01:02:17;;;;;;;21.73;15.63;;;19.10;99.90;;;;;;5073282;28;20167;-48
2023/09/17 01:04:49;;;;;;;23.27;15.53;;;19.10;99.90;;;;;;5071841;28;20176;-48
2023/09/17 01:07:16;;;;;;;22.07;15.63;;;19.10;99.90;;;;;;5073200;28;20164;-48
2023/09/17 01:09:42;;;;;;;20.37;15.80;;;19.10;99.90;;;;;;5073215;28;20206;-47
2023/09/17 01:12:08;;;;;;;21.70;16.37;;;19.10;99.90;;;;;;5072317;28;20207;-48
2023/09/17 01:14:34;;;;;;;20.40;16.47;;;19.10;99.90;;;;;;5071754;28;20237;-49
2023/09/17 01:17:01;;;;;;;20.77;17.23;;;19.10;99.90;;;;;;5073153;28;20325;-49
2023/09/17 01:19:29;;;;;;;21.97;17.27;;;19.00;99.90;;;;;;5071628;28;20283;-48
2023/09/17 01:22:13;;;;;;;24.17;17.83;;;19.00;99.90;;;;;;5072000;28;20183;-47
2023/09/17 01:25:04;;;;;;;26.17;19.33;;;18.90;99.90;;;;;;5072906;28;20176;-48
2023/09/17 01:27:32;;;;;;;30.13;19.33;;;18.90;99.90;;;;;;5063077;28;20604;-49
2023/09/17 01:29:58;;;;;;;27.17;19.30;;;19.00;99.90;;;;;;5073298;28;20274;-49
2023/09/17 01:32:24;;;;;;;28.93;19.10;;;18.90;99.90;;;;;;5071807;28;20662;-48
2023/09/17 01:34:53;;;;;;;22.27;17.93;;;18.90;99.90;;;;;;5073167;28;20171;-49
2023/09/17 01:37:30;;;;;;;26.43;17.70;;;18.90;99.90;;;;;;5071416;28;20273;-50
2023/09/17 01:40:05;;;;;;;29.27;17.27;;;18.90;99.90;;;;;;5072997;28;20562;-48
2023/09/17 01:42:31;;;;;;;24.13;16.50;;;18.90;99.90;;;;;;5072893;28;20168;-48
2023/09/17 01:44:59;;;;;;;22.37;15.60;;;18.90;99.90;;;;;;5076489;28;20176;-49
2023/09/17 01:47:27;;;;;;;21.60;16.23;;;18.90;99.90;;;;;;5075489;28;20190;-48
2023/09/17 01:49:55;;;;;;;21.30;15.17;;;18.90;99.90;;;;;;5077489;28;20585;-49
2023/09/17 01:52:25;;;;;;;24.07;15.33;;;18.90;99.90;;;;;;5076787;28;20192;-47
2023/09/17 01:54:50;;;;;;;23.03;16.23;;;18.90;99.90;;;;;;5077243;28;20207;-47
2023/09/17 01:57:16;;;;;;;17.97;15.30;;;18.90;99.90;;;;;;5076330;28;20222;-47
2023/09/17 01:59:42;;;;;;;19.50;15.20;;;18.90;99.90;;;;;;5076735;28;20203;-46
2023/09/17 02:02:07;;;;;;;19.70;14.47;;;18.90;99.90;;;;;;5076966;28;20179;-45
2023/09/17 02:04:33;;;;;;;21.27;15.20;;;18.80;99.90;;;;;;5076148;28;20537;-49
2023/09/17 02:06:59;;;;;;;22.73;16.80;;;18.80;99.90;;;;;;5074770;28;20201;-47
2023/09/17 02:09:25;;;;;;;21.13;16.23;;;18.80;99.90;;;;;;5075962;28;20221;-49
2023/09/17 02:11:50;;;;;;;20.70;16.17;;;18.80;99.90;;;;;;5076634;28;20183;-50
2023/09/17 02:14:16;;;;;;;22.07;17.33;;;18.80;99.90;;;;;;5074699;28;20679;-48
2023/09/17 02:16:43;;;;;;;21.77;16.20;;;18.80;99.90;;;;;;5075916;28;20328;-48
2023/09/17 02:19:09;;;;;;;22.53;16.10;;;18.80;99.90;;;;;;5074653;28;20196;-48
2023/09/17 02:21:35;;;;;;;24.03;15.13;;;18.70;99.90;;;;;;5076067;28;20689;-48
2023/09/17 02:24:01;;;;;;;23.93;15.63;;;18.70;99.90;;;;;;5075249;28;20187;-49
2023/09/17 02:26:27;;;;;;;22.70;16.27;;;18.70;99.90;;;;;;5076019;28;20599;-45
2023/09/17 02:28:54;;;;;;;20.93;15.50;;;18.70;99.90;;;;;;5076025;28;20201;-45
2023/09/17 02:31:20;;;;;;;24.13;15.60;;;18.60;99.90;;;;;;5074339;28;20190;-44
2023/09/17 02:33:46;;;;;;;24.00;16.50;;;18.70;99.90;;;;;;5075732;28;20179;-49
2023/09/17 02:36:13;;;;;;;21.23;17.70;;;18.60;99.90;;;;;;5075806;28;20208;-50
2023/09/17 02:38:41;;;;;;;22.83;17.43;;;18.60;99.90;;;;;;5075793;28;20266;-48
2023/09/17 02:41:07;;;;;;;25.43;18.33;;;18.60;99.90;;;;;;5076133;28;20250;-48
2023/09/17 02:43:36;;;;;;;24.30;18.50;;;18.70;99.90;;;;;;5075510;28;20180;-49
2023/09/17 02:46:04;;;;;;;23.30;18.70;;;18.60;99.90;;;;;;5073955;28;20749;-48
2023/09/17 02:48:33;;;;;;;23.30;18.13;;;18.70;99.90;;;;;;5075456;28;20184;-49
2023/09/17 02:51:01;;;;;;;27.23;19.37;;;18.60;99.90;;;;;;5073929;28;20179;-48
2023/09/17 02:53:27;;;;;;;24.53;19.37;;;18.60;99.90;;;;;;5076152;28;20187;-45
2023/09/17 02:55:54;;;;;;;24.73;19.10;;;18.60;99.90;;;;;;5076424;28;20187;-47
2023/09/17 02:58:20;;;;;;;25.80;19.10;;;18.60;99.90;;;;;;5075760;28;20639;-46
2023/09/17 03:00:46;;;;;;;27.83;19.80;;;18.70;99.90;;;;;;5075203;28;20321;-46
2023/09/17 03:03:12;;;;;;;26.33;19.50;;;18.60;99.90;;;;;;5073680;28;20183;-44
2023/09/17 03:05:38;;;;;;;25.33;19.47;;;18.70;99.90;;;;;;5075213;28;20247;-48
2023/09/17 03:08:09;;;;;;;26.13;19.63;;;18.60;99.90;;;;;;5074786;28;20256;-45
2023/09/17 03:10:42;;;;;;;26.33;18.73;;;18.60;99.90;;;;;;5075993;28;20218;-46
2023/09/17 03:13:10;;;;;;;26.40;19.73;;;18.70;99.90;;;;;;5075046;28;20171;-46
2023/09/17 03:15:36;;;;;;;27.43;19.57;;;18.60;99.90;;;;;;5073259;28;20268;-47
2023/09/17 03:18:02;;;;;;;28.80;21.33;;;18.70;99.90;;;;;;5074457;28;20180;-46
2023/09/17 03:20:33;;;;;;;32.27;21.17;;;18.60;99.90;;;;;;5074780;28;20207;-46
2023/09/17 03:23:04;;;;;;;27.67;20.97;;;18.60;99.90;;;;;;5074731;28;20172;-47
2023/09/17 03:25:31;;;;;;;28.03;20.23;;;18.60;99.90;;;;;;5074732;28;20163;-45
2023/09/17 03:28:00;;;;;;;29.77;19.60;;;18.60;99.90;;;;;;5056399;28;20251;-46
2023/09/17 03:30:27;;;;;;;30.57;21.30;;;18.60;99.90;;;;;;5073143;28;20196;-48
2023/09/17 03:32:53;;;;;;;31.93;19.73;;;18.60;99.90;;;;;;5074373;28;20172;-48
2023/09/17 03:35:18;;;;;;;27.87;19.77;;;18.60;99.90;;;;;;5074220;28;20716;-46
2023/09/17 03:37:45;;;;;;;25.23;18.77;;;18.60;99.90;;;;;;5074176;28;20698;-45
2023/09/17 03:40:13;;;;;;;25.07;19.07;;;18.60;99.90;;;;;;5074064;28;20222;-46
2023/09/17 03:42:40;;;;;;;22.67;18.17;;;18.60;99.90;;;;;;5074475;28;20191;-44
2023/09/17 03:45:09;;;;;;;21.40;17.30;;;18.60;99.90;;;;;;5074043;28;20180;-44
2023/09/17 03:47:36;;;;;;;22.70;17.67;;;18.60;99.90;;;;;;5072743;28;20195;-46
2023/09/17 03:50:06;;;;;;;26.67;18.73;;;18.60;99.90;;;;;;5072567;28;20211;-45
2023/09/17 03:52:34;;;;;;;25.23;19.30;;;18.50;99.90;;;;;;5072687;28;20232;-45
2023/09/17 03:55:07;;;;;;;24.27;17.27;;;18.60;99.90;;;;;;5072622;28;20183;-47
2023/09/17 03:57:36;;;;;;;24.93;18.40;;;18.60;99.90;;;;;;5073759;28;20206;-46
2023/09/17 04:00:06;;;;;;;25.37;18.63;;;18.60;99.90;;;;;;5072510;28;20210;-45
2023/09/17 04:02:35;;;;;;;20.50;16.93;;;18.50;99.90;;;;;;5074178;28;20179;-45
2023/09/17 04:05:08;;;;;;;23.37;17.37;;;18.50;99.90;;;;;;5073669;28;20190;-44
2023/09/17 04:07:34;;;;;;;24.97;18.30;;;18.50;99.90;;;;;;5073807;28;20176;-44
2023/09/17 04:10:02;;;;;;;23.80;17.53;;;18.50;99.90;;;;;;5073557;28;20203;-47
2023/09/17 04:12:29;;;;;;;22.27;17.57;;;18.50;99.90;;;;;;5072528;28;20214;-46
2023/09/17 04:14:56;;;;;;;26.37;18.40;;;18.50;99.90;;;;;;5073549;28;20547;-45
2023/09/17 04:17:23;;;;;;;23.93;18.50;;;18.50;99.90;;;;;;5073769;28;20230;-44
2023/09/17 04:19:51;;;;;;;24.27;16.83;;;18.50;99.90;;;;;;5073838;28;20324;-44
2023/09/17 04:22:18;;;;;;;24.07;17.63;;;18.50;99.90;;;;;;5074012;28;20226;-44
2023/09/17 04:24:44;;;;;;;24.07;18.47;;;18.50;99.90;;;;;;5073849;28;20183;-43
2023/09/17 04:27:11;;;;;;;23.80;18.87;;;18.50;99.90;;;;;;5073306;28;20195;-45
2023/09/17 04:29:38;;;;;;;23.23;18.60;;;18.50;99.90;;;;;;5073592;28;20199;-45
2023/09/17 04:32:04;;;;;;;26.27;18.50;;;18.50;99.90;;;;;;5073744;28;20186;-44
2023/09/17 04:34:30;;;;;;;24.63;16.90;;;18.50;99.90;;;;;;5073630;28;20184;-44
2023/09/17 04:36:58;;;;;;;20.50;16.87;;;18.50;99.90;;;;;;5073181;28;20269;-45
2023/09/17 04:39:25;;;;;;;19.90;16.27;;;18.40;99.90;;;;;;5073250;28;20581;-45
2023/09/17 04:41:52;;;;;;;21.70;16.70;;;18.40;99.90;;;;;;5072117;28;20176;-47
2023/09/17 04:44:18;;;;;;;24.27;16.37;;;18.40;99.90;;;;;;5072043;28;20212;-44
2023/09/17 04:46:45;;;;;;;23.03;17.30;;;18.40;99.90;;;;;;5073138;28;20179;-45
2023/09/17 04:49:12;;;;;;;20.50;17.37;;;18.40;99.90;;;;;;5072991;28;20199;-46
2023/09/17 04:51:38;;;;;;;20.80;16.70;;;18.40;99.90;;;;;;5073167;28;20176;-45
2023/09/17 04:54:05;;;;;;;20.87;16.97;;;18.50;99.90;;;;;;5073196;28;20190;-44
2023/09/17 04:56:32;;;;;;;20.40;16.13;;;18.40;99.90;;;;;;5073173;28;20779;-46
2023/09/17 04:58:59;;;;;;;20.63;15.43;;;18.40;99.90;;;;;;5073808;28;20272;-52
2023/09/17 05:01:27;;;;;;;22.60;16.17;;;18.40;99.90;;;;;;5072542;28;20664;-50
2023/09/17 05:03:54;;;;;;;22.90;17.77;;;18.40;99.90;;;;;;5073015;28;20180;-49
2023/09/17 05:06:21;;;;;;;24.37;17.93;;;18.40;99.90;;;;;;5071685;28;20241;-48
2023/09/17 05:08:48;;;;;;;20.40;16.83;;;18.40;99.90;;;;;;5072929;28;20188;-47
2023/09/17 05:11:15;;;;;;;18.83;15.57;;;18.30;99.90;;;;;;5072529;28;20187;-49
2023/09/17 05:13:42;;;;;;;18.47;14.73;;;18.30;99.90;;;;;;5072940;28;20175;-49
2023/09/17 05:16:09;;;;;;;18.70;14.60;;;18.30;99.90;;;;;;5072885;28;20298;-48
2023/09/17 05:18:36;;;;;;;18.40;15.43;;;18.30;99.90;;;;;;5074264;28;20697;-48
2023/09/17 05:21:03;;;;;;;19.43;15.13;;;18.30;99.90;;;;;;5075443;28;20279;-49
2023/09/17 05:23:30;;;;;;;21.20;14.90;;;18.30;99.90;;;;;;5076818;28;20246;-48
2023/09/17 05:25:57;;;;;;;18.70;15.07;;;18.20;99.90;;;;;;5076568;28;20185;-50
2023/09/17 05:28:25;;;;;;;22.40;17.13;;;18.30;99.90;;;;;;5076474;28;20245;-50
2023/09/17 05:30:57;;;;;;;18.73;14.53;;;18.30;99.90;;;;;;5076401;28;20203;-48
2023/09/17 05:33:26;;;;;;;19.83;15.20;;;18.30;99.90;;;;;;5076536;28;20164;-50
2023/09/17 05:35:56;;;;;;;21.50;16.47;;;18.30;99.90;;;;;;5076270;28;20207;-50
2023/09/17 05:38:23;;;;;;;21.20;15.03;;;18.30;99.90;;;;;;5075183;28;20270;-47
2023/09/17 05:40:51;;;;;;;19.37;15.23;;;18.30;99.90;;;;;;5075565;28;20252;-50
2023/09/17 05:43:16;;;;;;;19.67;15.83;;;18.30;99.90;;;;;;5076534;28;20183;-49
2023/09/17 05:45:43;;;;;;;21.00;15.53;;;18.40;99.90;;;;;;5076583;28;20315;-45
2023/09/17 05:48:09;;;;;;;20.60;15.77;;;18.40;99.90;;;;;;5075386;28;20564;-44
2023/09/17 05:50:39;;;;;;;19.53;15.17;;;18.40;99.90;;;;;;5074915;28;20206;-46
2023/09/17 05:53:05;;;;;;;19.37;15.60;;;18.40;99.90;;;;;;5076520;28;20187;-45
2023/09/17 05:55:33;;;;;;;18.90;15.90;;;18.40;99.90;;;;;;5075836;28;20555;-45
2023/09/17 05:57:59;;;;;;;22.27;16.87;;;18.40;99.90;;;;;;5076094;28;20175;-43
2023/09/17 06:00:27;;;;;;;26.93;16.97;;;18.50;99.90;;;;;;5075862;28;20195;-48
2023/09/17 06:02:54;;;;;;;19.47;15.80;;;18.50;99.90;;;;;;5074663;28;20650;-44
2023/09/17 06:05:21;;;;;;;21.50;16.23;;;18.50;99.90;;;;;;5075838;28;20183;-43
2023/09/17 06:07:47;;;;;;;26.30;17.47;;;18.50;99.90;;;;;;5075887;28;20651;-44
2023/09/17 06:10:14;;;;;;;22.07;16.20;;;18.60;99.90;;;;;;5075809;28;20674;-46
2023/09/17 06:12:41;;;;;;;19.67;16.23;;;18.60;99.90;;;;;;5075869;28;20674;-45
2023/09/17 06:15:08;;;;;;;19.77;15.87;;;18.60;99.90;;;;;;5074650;28;20203;-44
2023/09/17 06:17:35;;;;;;;20.50;15.73;;;18.60;99.90;;;;;;5057673;28;20277;-45
2023/09/17 06:20:02;;;;;;;22.03;16.40;;;18.60;99.90;;;;;;5075568;28;20612;-45
2023/09/17 06:22:29;;;;;;;21.30;16.13;;;18.70;99.90;;;;;;5075531;28;20195;-45
2023/09/17 06:24:55;;;;;;;20.07;16.23;;;18.70;99.90;;;;;;5074289;28;20618;-45
2023/09/17 06:27:22;;;;;;;20.50;15.73;;;18.80;99.90;;;;;;5075447;28;20199;-44
2023/09/17 06:29:49;;;;;;;21.37;15.43;;;18.80;99.90;;;;;;5075441;28;20214;-49
2023/09/17 06:32:16;;;;;;;20.07;14.63;;;18.90;99.90;;;;;;5075389;28;20535;-47
2023/09/17 06:34:43;;;;;;;17.73;13.80;;;19.00;99.90;;;;;;5075370;28;20191;-49
2023/09/17 06:37:10;;;;;;;15.13;13.17;;;19.10;99.90;;;;;;5075213;28;20199;-50
2023/09/17 06:39:37;;;;;;;15.07;12.60;;;19.10;99.90;;;;;;5075113;28;20671;-48
2023/09/17 06:42:04;;;;;;;17.13;13.43;;;19.20;99.90;;;;;;5075274;28;20547;-50
2023/09/17 06:44:31;;;;;;;18.73;12.73;;;19.30;99.90;;;;;;5075211;28;20188;-49
2023/09/17 06:46:58;;;;;;;16.10;11.33;;;19.40;99.90;;;;;;5073842;28;20191;-50
2023/09/17 06:49:25;;;;;;;14.73;10.57;;;19.50;99.90;;;;;;5074971;28;20294;-48
2023/09/17 06:51:54;;;;;;;14.30;9.83;;;19.50;99.90;;;;;;5075097;28;20262;-49
2023/09/17 06:54:21;;;;;;;13.50;9.93;;;19.60;99.90;;;;;;5074975;28;20190;-49
2023/09/17 06:56:48;;;;;;;12.33;9.27;;;19.80;99.90;;;;;;5075691;28;20246;-49
2023/09/17 06:59:16;;;;;;;12.90;9.23;;;19.80;99.90;;;;;;5074893;28;20192;-50
2023/09/17 07:01:45;;;;;;;14.17;8.13;;;19.90;99.90;;;;;;5073715;28;20658;-48
2023/09/17 07:04:12;;;;;;;12.57;9.10;;;20.00;99.90;;;;;;5074902;28;20580;-48
2023/09/17 07:06:38;;;;;;;13.70;8.50;;;20.10;99.90;;;;;;5073690;28;20583;-50
2023/09/17 07:09:08;;;;;;;11.53;8.57;;;20.10;99.90;;;;;;5073355;28;20299;-49
2023/09/17 07:11:35;;;;;;;9.47;6.90;;;20.20;99.90;;;;;;5075111;28;20171;-49
2023/09/17 07:14:05;;;;;;;10.77;7.07;;;20.30;99.90;;;;;;5074722;28;20180;-49
2023/09/17 07:16:32;;;;;;;11.90;8.03;;;20.30;99.90;;;;;;5073643;28;20191;-49
2023/09/17 07:26:45;;;;;;;10.47;6.30;;;20.70;99.90;;;;;;5032906;28;20220;-46
2023/09/17 07:29:11;;;;;;;8.33;5.30;;;20.80;99.90;;;;;;5034360;28;20546;-45
2023/09/17 07:31:36;;;;;;;11.97;5.70;;;20.90;99.90;;;;;;5034405;28;20173;-45
2023/09/17 07:34:07;;;;;;;8.73;6.03;;;20.90;99.90;;;;;;5033170;28;20177;-46
2023/09/17 07:36:33;;;;;;;7.17;5.63;;;21.00;99.90;;;;;;5034753;28;20205;-46
2023/09/17 07:38:59;;;;;;;7.23;4.73;;;21.10;99.90;;;;;;5034637;28;20200;-46
2023/09/17 07:41:24;;;;;;;5.57;4.73;;;21.20;99.90;;;;;;5033770;28;20715;-45
2023/09/17 07:43:50;;;;;;;7.37;5.00;;;21.30;99.90;;;;;;5034197;28;20180;-44
2023/09/17 07:46:16;;;;;;;8.23;5.10;;;21.40;99.90;;;;;;5032909;28;20672;-46
2023/09/17 07:48:43;;;;;;;9.07;5.03;;;21.40;99.90;;;;;;5032826;28;20184;-44
2023/09/17 07:56:58;;;;;;;4.83;4.27;;;21.60;99.90;;;;;;1058576;26;21273;-49
2023/09/17 07:59:43;;;;;;;5.27;3.90;;;21.70;99.90;;;;;;5045392;28;20215;-48
2023/09/17 08:02:14;;;;;;;6.87;4.10;;;21.80;99.90;;;;;;5055016;28;20164;-48
2023/09/17 08:04:47;;;;;;;4.07;3.60;;;21.80;99.90;;;;;;5054585;28;20192;-50
2023/09/17 08:07:14;;;;;;;8.77;3.93;;;21.80;99.90;;;;;;5053991;28;20161;-48
2023/09/17 08:09:44;;;;;;;6.20;3.80;;;21.90;99.90;;;;;;5052883;28;20563;-49
2023/09/17 08:12:11;;;;;;;6.07;3.60;;;22.00;99.90;;;;;;5055271;28;20252;-48
2023/09/17 08:14:46;;;;;;;4.53;3.50;;;22.00;99.90;;;;;;5054616;28;20177;-50
2023/09/17 08:17:13;;;;;;;5.70;3.23;;;22.10;99.90;;;;;;5054751;28;20674;-50
2023/09/17 08:19:40;;;;;;;4.90;3.13;;;22.10;99.90;;;;;;5055015;28;20565;-50
2023/09/17 08:27:14;;;;;;;6.33;3.40;;;22.20;99.90;;;;;;5050288;28;20297;-45
2023/09/17 08:29:40;;;;;;;6.10;3.80;;;22.30;99.90;;;;;;5054514;22;20233;-91
2023/09/17 08:32:07;;;;;;;6.20;3.50;;;22.30;99.90;;;;;;5018936;28;20188;-91
2023/09/17 08:34:32;;;;;;;3.90;2.90;;;22.40;99.90;;;;;;5020023;28;20675;-91
2023/09/17 08:36:58;;;;;;;4.70;3.50;;;22.50;99.90;;;;;;5027715;28;20224;-94
2023/09/17 08:39:25;;;;;;;3.10;2.87;;;22.50;99.90;;;;;;5035964;28;20195;-93
2023/09/17 08:41:52;;;;;;;3.40;2.90;;;22.60;99.90;;;;;;5038070;28;20185;-92
2023/09/17 08:44:18;;;;;;;5.33;3.10;;;22.60;99.90;;;;;;5039037;28;20185;-92
2023/09/17 08:46:45;;;;;;;4.70;2.90;;;22.60;99.90;;;;;;5037328;28;20205;-89
2023/09/17 08:49:11;;;;;;;4.30;3.23;;;22.60;99.90;;;;;;5038192;28;20181;-92
2023/09/17 08:51:39;;;;;;;3.20;2.90;;;22.70;99.90;;;;;;5036503;28;20732;-92
2023/09/17 08:54:14;;;;;;;7.60;2.83;;;22.70;99.90;;;;;;5041028;28;20331;-91
2023/09/17 08:56:42;;;;;;;2.90;2.47;;;22.90;99.90;;;;;;5047181;28;20208;-87
2023/09/17 08:59:24;;;;;;;3.57;3.13;;;22.90;99.90;;;;;;5045822;28;20177;-88
2023/09/17 09:01:51;;;;;;;2.90;2.70;;;23.00;99.90;;;;;;5047632;28;20181;-90
2023/09/17 09:04:18;;;;;;;4.83;2.70;;;23.10;99.90;;;;;;5051839;28;20655;-89
2023/09/17 09:06:46;;;;;;;5.23;2.93;;;23.10;99.90;;;;;;5051936;28;20251;-92
2023/09/17 09:09:12;;;;;;;3.43;2.23;;;23.20;99.90;;;;;;5024921;28;20261;-88
2023/09/17 09:11:38;;;;;;;4.70;2.83;;;23.20;99.90;;;;;;5041553;28;20180;-88
2023/09/17 09:14:06;;;;;;;5.90;2.13;;;23.20;99.90;;;;;;5042791;28;20177;-87
2023/09/17 09:16:34;;;;;;;3.33;2.73;;;23.30;99.90;;;;;;5042218;28;20205;-87
2023/09/17 09:19:00;;;;;;;5.37;2.70;;;23.30;99.90;;;;;;5039612;28;20189;-89
2023/09/17 09:21:28;;;;;;;5.97;2.63;;;23.50;99.90;;;;;;5040702;28;20165;-94
2023/09/17 09:23:57;;;;;;;3.50;2.57;;;23.50;99.90;;;;;;5039522;28;20234;-90
2023/09/17 09:26:35;;;;;;;4.03;2.47;;;23.50;99.90;;;;;;5039261;28;20197;-90
2023/09/17 09:29:02;;;;;;;3.80;2.73;;;23.60;99.90;;;;;;5039349;28;20606;-88
2023/09/17 09:31:29;;;;;;;2.50;2.30;;;23.80;99.90;;;;;;5039261;28;20196;-88
2023/09/17 09:33:57;;;;;;;6.80;2.77;;;23.80;99.80;;;;;;5045905;28;20161;-89
2023/09/17 09:36:22;;;;;;;2.93;2.30;;;23.90;96.80;;;;;;5048776;28;20234;-89
2023/09/17 09:38:49;;;;;;;5.67;1.93;;;23.90;98.30;;;;;;5041664;28;20263;-88
2023/09/17 09:41:15;;;;;;;3.50;2.17;;;24.00;98.30;;;;;;5042266;28;20200;-88
2023/09/17 09:43:42;;;;;;;3.70;2.30;;;24.10;97.50;;;;;;5040138;28;20184;-89
2023/09/17 09:46:09;;;;;;;5.00;2.80;;;24.10;98.20;;;;;;5040936;28;20201;-90
2023/09/17 09:48:38;;;;;;;4.03;2.40;;;24.20;97.10;;;;;;5040981;28;20541;-90
2023/09/17 09:51:04;;;;;;;4.60;2.47;;;24.40;96.30;;;;;;5040735;28;20181;-89
2023/09/17 09:53:30;;;;;;;3.67;2.60;;;24.40;97.70;;;;;;5040784;28;20177;-89
2023/09/17 09:55:56;;;;;;;2.50;2.30;;;24.50;96.70;;;;;;5041140;28;20224;-90
2023/09/17 09:58:23;;;;;;;3.30;2.40;;;24.60;95.30;;;;;;5041763;28;20271;-89
2023/09/17 10:00:49;;;;;;;5.97;2.40;;;24.70;92.10;;;;;;5042149;28;20201;-89
2023/09/17 10:03:17;;;;;;;3.90;2.70;;;24.80;90.50;;;;;;5040545;28;20711;-91
2023/09/17 10:05:44;;;;;;;2.87;2.33;;;24.80;90.00;;;;;;5040540;28;20213;-90
2023/09/17 10:08:12;;;;;;;3.30;2.40;;;24.90;83.10;;;;;;5041998;28;20203;-90
2023/09/17 10:10:38;;;;;;;2.93;2.73;;;25.00;88.80;;;;;;5042268;28;20189;-89
2023/09/17 10:13:08;;;;;;;2.70;2.40;;;25.00;87.30;;;;;;5041932;28;20176;-89
2023/09/17 10:15:47;;;;;;;3.43;2.17;;;25.10;86.70;;;;;;5042169;28;20181;-90
2023/09/17 10:18:17;;;;;;;3.17;2.60;;;25.20;87.00;;;;;;5031819;28;20662;-90
2023/09/17 10:20:44;;;;;;;3.73;2.60;;;26.00;82.40;;;;;;5053780;28;20208;-91
2023/09/17 10:23:15;;;;;;;3.17;2.60;;;25.40;82.30;;;;;;5044874;28;20184;-91
2023/09/17 10:25:42;;;;;;;5.40;2.60;;;25.50;79.10;;;;;;5041792;28;20177;-87
2023/09/17 10:28:11;;;;;;;3.17;2.43;;;25.60;82.90;;;;;;5040733;28;20184;-89
2023/09/17 10:30:38;;;;;;;7.13;2.97;;;25.70;80.70;;;;;;5040824;28;20743;-87
2023/09/17 10:33:05;;;;;;;3.03;2.43;;;25.90;74.70;;;;;;5040212;28;20272;-89
2023/09/17 10:35:32;;;;;;;2.87;2.47;;;26.00;71.00;;;;;;5039575;28;20578;-89
2023/09/17 10:38:03;;;;;;;2.83;2.33;;;26.10;70.70;;;;;;5039686;28;20185;-88
2023/09/17 10:40:31;;;;;;;3.30;2.80;;;26.10;60.50;;;;;;5040699;28;20260;-86
2023/09/17 10:43:01;;;;;;;3.50;2.80;;;26.20;61.10;;;;;;5040082;28;20248;-87
2023/09/17 10:45:30;;;;;;;3.20;2.60;;;26.20;66.10;;;;;;5041277;28;20201;-88
2023/09/17 10:47:58;;;;;;;3.37;2.47;;;26.40;66.40;;;;;;5023481;28;20256;-87
2023/09/17 10:50:27;;;;;;;4.47;3.10;;;26.50;62.00;;;;;;5039616;28;20185;-89
2023/09/17 10:52:53;;;;;;;2.97;2.47;;;26.60;55.20;;;;;;5038101;28;20265;-87
2023/09/17 10:55:22;;;;;;;3.03;2.73;;;26.70;48.00;;;;;;5023280;28;20216;-88
2023/09/17 10:57:55;;;;;;;3.97;2.80;;;26.70;44.10;;;;;;5037435;28;20216;-91
2023/09/17 11:00:23;;;;;;;3.20;2.70;;;26.70;42.70;;;;;;5038105;28;20192;-90
2023/09/17 11:02:55;;;;;;;3.53;2.87;;;26.60;43.60;;;;;;5037561;28;20260;-87
2023/09/17 11:05:24;;;;;;;2.97;2.67;;;26.60;49.10;;;;;;5037781;28;20173;-88
2023/09/17 11:07:56;;;;;;;5.27;2.77;;;26.60;51.00;;;;;;5037324;28;20205;-86
2023/09/17 11:10:23;;;;;;;4.87;3.07;;;26.50;52.70;;;;;;5038042;28;20181;-90
2023/09/17 11:12:51;;;;;;;3.13;2.70;;;26.50;66.10;;;;;;5037817;28;20180;-87
2023/09/17 11:15:17;;;;;;;5.57;3.00;;;26.80;65.20;;;;;;5037750;28;20181;-88
2023/09/17 11:17:47;;;;;;;3.17;2.83;;;27.00;52.20;;;;;;5038671;28;20208;-86
2023/09/17 11:20:17;;;;;;;4.63;2.60;;;27.10;42.00;;;;;;5038143;28;20233;-88
2023/09/17 11:22:50;;;;;;;6.03;2.70;;;27.30;35.20;;;;;;5038906;28;20174;-87
2023/09/17 11:25:35;;;;;;;6.03;2.87;;;27.40;35.70;;;;;;5040105;28;20169;-88
2023/09/17 11:28:14;;;;;;;3.07;2.83;;;27.50;35.60;;;;;;5038951;28;20208;-87
2023/09/17 11:31:02;;;;;;;2.73;2.53;;;27.60;27.80;;;;;;5037390;28;20200;-90
2023/09/17 11:33:32;;;;;;;4.55;2.60;;;27.60;30.10;;;;;;5038453;28;20176;-89
2023/09/17 11:36:00;;;;;;;2.75;2.55;;;27.60;46.00;;;;;;5047412;28;20276;-84
2023/09/17 11:38:29;;;;;;;4.97;2.63;;;27.60;45.20;;;;;;5048569;28;20176;-87
2023/09/17 11:41:11;;;;;;;5.82;2.45;;;27.60;49.60;;;;;;5039409;28;20617;-89
2023/09/17 11:43:39;;;;;;;6.35;2.83;;;27.70;41.90;;;;;;5038286;28;20180;-87
2023/09/17 11:46:09;;;;;;;9.82;2.70;;;28.00;30.40;;;;;;5035552;28;20204;-87
2023/09/17 11:48:39;;;;;;;2.90;1.92;;;27.70;38.00;;;;;;5038318;28;20637;-87
2023/09/17 11:51:21;;;;;;;2.70;2.17;;;27.80;55.50;;;;;;5036997;28;20219;-89
2023/09/17 11:53:55;;;;;;;2.50;2.30;;;27.90;32.80;;;;;;5036284;28;20260;-88
2023/09/17 11:56:21;;;;;;;3.65;2.50;;;27.90;40.70;;;;;;5031761;28;20211;-88
2023/09/17 11:59:05;;;;;;;3.47;2.60;;;28.10;56.90;;;;;;5036105;28;20246;-88
2023/09/17 12:01:46;;;;;;;4.00;2.28;;;28.20;44.80;;;;;;5037147;28;20181;-87
2023/09/17 12:04:12;;;;;;;3.00;2.13;;;28.30;43.30;;;;;;5036365;28;20187;-87
2023/09/17 12:06:44;;;;;;;2.95;2.45;;;28.40;37.60;;;;;;5037388;28;20283;-87
2023/09/17 12:09:20;;;;;;;2.60;2.10;;;28.40;42.80;;;;;;5036928;28;20243;-88
2023/09/17 12:11:47;;;;;;;3.03;2.10;;;28.40;46.00;;;;;;5038639;28;20176;-88
2023/09/17 12:14:13;;;;;;;2.47;2.00;;;28.50;48.50;;;;;;5038612;28;20219;-87
2023/09/17 12:16:39;;;;;;;3.45;2.42;;;28.40;49.60;;;;;;5040060;28;20212;-85
2023/09/17 12:19:05;;;;;;;2.10;1.90;;;28.40;53.60;;;;;;5046097;28;20204;-89
2023/09/17 12:21:38;;;;;;;3.97;2.70;;;28.40;58.80;;;;;;5035912;28;20284;-87
2023/09/17 12:24:08;;;;;;;5.80;2.65;;;28.30;48.80;;;;;;5035939;28;20641;-88
2023/09/17 12:26:57;;;;;;;2.35;2.22;;;28.20;45.00;;;;;;5037164;28;20228;-87
2023/09/17 12:29:22;;;;;;;3.63;2.20;;;28.20;59.40;;;;;;5038970;28;20256;-88
2023/09/17 12:31:49;;;;;;;2.90;2.15;;;28.20;58.70;;;;;;5056962;28;20176;-85
2023/09/17 12:34:15;;;;;;;3.25;2.33;;;28.20;62.00;;;;;;5058380;28;20212;-85
2023/09/17 12:36:42;;;;;;;2.67;2.20;;;28.10;65.10;;;;;;5058051;28;20200;-86
2023/09/17 12:39:11;;;;;;;2.65;2.28;;;28.10;65.90;;;;;;5041960;28;20176;-89
2023/09/17 12:41:37;;;;;;;4.45;2.10;;;28.10;67.90;;;;;;5058322;28;20169;-92
2023/09/17 12:44:02;;;;;;;5.35;2.40;;;28.10;55.20;;;;;;5058287;28;20187;-84
2023/09/17 12:46:28;;;;;;;2.78;2.30;;;28.10;51.10;;;;;;5058043;28;20276;-83
2023/09/17 12:48:54;;;;;;;3.63;2.10;;;28.00;35.70;;;;;;5058078;28;20161;-86
2023/09/17 12:51:21;;;;;;;3.10;2.50;;;28.10;34.20;;;;;;5058316;28;20164;-86
2023/09/17 12:53:50;;;;;;;2.53;2.33;;;28.00;34.70;;;;;;5058048;28;20195;-87
2023/09/17 12:56:16;;;;;;;2.53;2.25;;;28.00;19.40;;;;;;5057690;28;20270;-89
2023/09/17 13:01:09;;;;;;;3.13;2.38;;;28.00;24.50;;;;;;5038906;23;20599;-45
2023/09/17 13:03:35;;;;;;;2.65;2.45;;;28.00;22.30;;;;;;5033753;28;20173;-49